Time;durP1;ratioP1;P1;durP2;ratioP2;P2;SDS_P1;SDS_P2;PMS_P1;PMS_P2;Temp;Humidity;BMP_temperature;BMP_pressure;BME280_temperature;BME280_humidity;BME280_pressure;Samples;Min_cycle;Max_cycle;Signal;HPM_P1;HPM_P2
2021/11/01 00:01:47;;;;;;;10.48;1.85;;;;;;;8.71;57.73;99589.16;5022014;28;20091;-67
2021/11/01 00:04:13;;;;;;;8.05;0.70;;;;;;;9.17;56.29;99597.94;5022669;28;20072;-68
2021/11/01 00:06:38;;;;;;;10.50;0.82;;;;;;;9.07;56.56;99603.75;5021864;28;20037;-67
2021/11/01 00:09:04;;;;;;;10.65;0.77;;;;;;;9.19;55.98;99603.09;5023968;28;20033;-68
2021/11/01 00:11:30;;;;;;;10.70;0.75;;;;;;;9.23;55.86;99604.63;5021909;28;20040;-73
2021/11/01 00:13:56;;;;;;;12.35;0.70;;;;;;;9.22;55.68;99609.91;5006479;28;20041;-74
2021/11/01 00:16:21;;;;;;;9.13;0.57;;;;;;;9.16;55.79;99606.72;5004740;28;20089;-74
2021/11/01 00:18:47;;;;;;;9.02;0.98;;;;;;;8.99;56.47;99593.75;5005768;28;20087;-71
2021/11/01 00:21:13;;;;;;;19.00;2.65;;;;;;;8.85;57.14;99601.44;5025694;28;20494;-72
2021/11/01 00:23:40;;;;;;;9.52;1.08;;;;;;;8.82;57.55;99605.03;5009393;28;20216;-72
2021/11/01 00:26:05;;;;;;;19.98;1.05;;;;;;;8.90;56.85;99602.88;5008876;28;20495;-73
2021/11/01 00:28:31;;;;;;;9.30;1.90;;;;;;;8.75;57.51;99601.09;5028853;28;20041;-71
2021/11/01 00:30:56;;;;;;;9.50;1.25;;;;;;;8.52;58.16;99605.72;5027157;28;20041;-71
2021/11/01 00:33:23;;;;;;;21.70;1.20;;;;;;;8.74;57.55;99609.84;5025637;28;20040;-74
2021/11/01 00:35:49;;;;;;;6.63;0.77;;;;;;;8.84;56.99;99610.19;5025794;28;20092;-69
2021/11/01 00:38:15;;;;;;;10.13;1.45;;;;;;;8.71;57.57;99613.41;5025456;28;20033;-68
2021/11/01 00:40:41;;;;;;;17.77;1.77;;;;;;;8.34;58.81;99609.25;5025293;28;20037;-67
2021/11/01 00:43:08;;;;;;;13.25;0.95;;;;;;;8.56;58.05;99608.97;4995496;28;20632;-69
2021/11/01 00:45:33;;;;;;;25.23;2.35;;;;;;;8.33;58.34;99618.81;5025423;28;20049;-69
2021/11/01 00:47:59;;;;;;;10.55;1.77;;;;;;;8.35;58.44;99613.53;5008698;28;20436;-69
2021/11/01 00:50:25;;;;;;;15.25;1.38;;;;;;;8.96;56.39;99610.38;5007196;28;20033;-67
2021/11/01 00:52:50;;;;;;;12.60;2.22;;;;;;;8.48;57.70;99604.19;5027909;28;20030;-75
2021/11/01 00:55:23;;;;;;;13.25;1.38;;;;;;;8.50;58.07;99611.91;5026186;28;20017;-71
2021/11/01 00:57:50;;;;;;;13.48;1.00;;;;;;;8.76;56.65;99614.03;4995728;28;20044;-73
2021/11/01 01:00:17;;;;;;;12.98;1.00;;;;;;;8.88;56.38;99611.72;4986196;28;20037;-73
2021/11/01 01:02:44;;;;;;;15.63;1.20;;;;;;;8.06;59.01;99615.00;5010982;28;20030;-72
2021/11/01 01:05:11;;;;;;;12.57;1.30;;;;;;;8.67;57.49;99618.84;5008085;28;20044;-74
2021/11/01 01:07:37;;;;;;;10.18;0.60;;;;;;;8.92;55.87;99616.69;5009307;28;20037;-72
2021/11/01 01:10:06;;;;;;;10.10;1.60;;;;;;;8.58;57.03;99614.94;5026649;28;20409;-72
2021/11/01 01:12:31;;;;;;;10.68;0.70;;;;;;;8.35;57.98;99613.53;5025789;28;20270;-73
2021/11/01 01:14:59;;;;;;;8.82;0.45;;;;;;;8.94;55.67;99617.44;5010134;28;20540;-68
2021/11/01 01:17:26;;;;;;;14.15;1.52;;;;;;;9.00;55.75;99620.63;5025647;28;20131;-68
2021/11/01 01:20:04;;;;;;;10.00;0.80;;;;;;;8.94;55.69;99612.22;5006666;28;20167;-70
2021/11/01 01:22:30;;;;;;;15.57;1.10;;;;;;;8.77;56.23;99620.09;5025443;28;20037;-68
2021/11/01 01:25:11;;;;;;;12.32;1.20;;;;;;;8.64;56.29;99621.63;5025360;28;20273;-70
2021/11/01 01:27:38;;;;;;;11.10;1.67;;;;;;;8.44;57.48;99615.66;4992879;28;20553;-70
2021/11/01 01:30:05;;;;;;;10.88;1.10;;;;;;;8.82;56.33;99622.44;5025229;28;20095;-68
2021/11/01 01:32:30;;;;;;;13.13;1.60;;;;;;;8.71;56.28;99616.03;5024459;28;20037;-69
2021/11/01 01:34:56;;;;;;;13.02;1.17;;;;;;;8.81;55.90;99616.41;5006351;28;20464;-69
2021/11/01 01:37:22;;;;;;;9.80;1.30;;;;;;;8.84;55.77;99615.41;5025129;28;20364;-69
2021/11/01 01:39:47;;;;;;;13.10;1.58;;;;;;;8.79;55.96;99615.66;5026187;28;20025;-70
2021/11/01 01:42:12;;;;;;;10.55;1.02;;;;;;;8.69;56.15;99610.03;5025194;28;20115;-70
2021/11/01 01:44:38;;;;;;;8.32;0.80;;;;;;;8.36;57.16;99615.22;5023557;28;20029;-69
2021/11/01 01:47:04;;;;;;;14.80;0.77;;;;;;;8.75;56.11;99611.50;5019731;28;20045;-69
2021/11/01 01:49:30;;;;;;;16.70;1.30;;;;;;;8.70;56.09;99608.28;5025664;28;20556;-69
2021/11/01 01:51:55;;;;;;;12.13;1.25;;;;;;;8.79;55.78;99613.03;5024850;28;20302;-69
2021/11/01 01:54:21;;;;;;;10.25;1.13;;;;;;;8.80;56.15;99614.72;5025342;28;20029;-69
2021/11/01 01:56:47;;;;;;;22.45;1.35;;;;;;;8.50;57.31;99620.56;5006257;28;20463;-69
2021/11/01 01:59:16;;;;;;;20.23;2.17;;;;;;;8.82;56.14;99609.44;5027226;28;20029;-70
2021/11/01 02:01:42;;;;;;;12.00;0.85;;;;;;;8.76;56.08;99615.78;5006119;28;20036;-70
2021/11/01 02:04:08;;;;;;;18.27;1.75;;;;;;;8.66;56.52;99615.41;5026623;28;20041;-69
2021/11/01 02:06:44;;;;;;;11.05;1.83;;;;;;;8.64;56.42;99613.81;5011280;28;20096;-69
2021/11/01 02:09:19;;;;;;;10.63;0.85;;;;;;;8.76;55.77;99607.97;5005050;28;20445;-67
2021/11/01 02:11:48;;;;;;;16.23;1.60;;;;;;;8.59;56.46;99600.19;5017276;28;20518;-68
2021/11/01 02:14:20;;;;;;;19.10;2.33;;;;;;;8.34;56.95;99591.88;5024815;28;20505;-69
2021/11/01 02:16:49;;;;;;;9.88;0.85;;;;;;;8.28;57.23;99599.16;5023231;28;20052;-67
2021/11/01 02:19:18;;;;;;;20.25;1.42;;;;;;;8.44;56.73;99589.63;5025199;28;20026;-67
2021/11/01 02:21:54;;;;;;;13.35;1.10;;;;;;;8.40;56.73;99590.69;5024730;28;20561;-69
2021/11/01 02:24:41;;;;;;;17.77;1.45;;;;;;;8.48;56.42;99585.13;5025654;28;20029;-67
2021/11/01 02:27:11;;;;;;;10.73;2.08;;;;;;;8.30;57.13;99579.09;5006551;28;20599;-70
2021/11/01 02:29:40;;;;;;;11.05;0.88;;;;;;;8.19;57.58;99578.78;5004623;28;20033;-72
2021/11/01 02:32:07;;;;;;;9.50;1.23;;;;;;;7.97;58.36;99576.44;5004701;28;20045;-75
2021/11/01 02:34:33;;;;;;;16.02;1.70;;;;;;;8.29;56.67;99574.78;4982916;28;20032;-69
2021/11/01 02:36:59;;;;;;;8.73;0.80;;;;;;;8.30;56.76;99577.31;5003395;28;20038;-70
2021/11/01 02:39:26;;;;;;;5.93;0.52;;;;;;;8.32;56.64;99578.09;4978303;28;20521;-68
2021/11/01 02:41:52;;;;;;;14.48;1.10;;;;;;;7.99;57.65;99575.44;5000873;28;20530;-68
2021/11/01 02:44:21;;;;;;;18.35;2.03;;;;;;;8.23;57.19;99572.53;5003045;28;20037;-74
2021/11/01 02:46:47;;;;;;;7.53;1.15;;;;;;;8.03;57.24;99571.75;5016888;28;20106;-69
2021/11/01 02:49:12;;;;;;;12.30;1.88;;;;;;;7.70;58.47;99575.09;5024698;28;20483;-69
2021/11/01 02:51:40;;;;;;;6.63;1.33;;;;;;;8.02;57.92;99577.88;5022136;28;20083;-70
2021/11/01 02:54:07;;;;;;;6.22;0.88;;;;;;;8.16;57.15;99572.00;5005960;28;20174;-70
2021/11/01 02:56:33;;;;;;;9.45;1.27;;;;;;;8.17;57.02;99570.22;5022988;28;20094;-73
2021/11/01 02:58:59;;;;;;;11.65;0.98;;;;;;;8.09;57.30;99574.06;5024679;28;20025;-72
2021/11/01 03:01:25;;;;;;;10.25;1.15;;;;;;;8.17;57.09;99562.41;5024655;28;20486;-72
2021/11/01 03:03:52;;;;;;;14.63;1.10;;;;;;;7.72;58.20;99564.63;5003662;28;20124;-72
2021/11/01 03:06:22;;;;;;;10.77;1.10;;;;;;;7.85;58.01;99559.69;5026103;28;20518;-73
2021/11/01 03:08:49;;;;;;;8.35;0.82;;;;;;;7.98;57.35;99560.75;5005906;28;20049;-72
2021/11/01 03:11:15;;;;;;;12.55;1.00;;;;;;;7.90;57.92;99560.28;5005169;28;20061;-72
2021/11/01 03:13:41;;;;;;;8.13;1.77;;;;;;;7.55;58.60;99557.63;4985056;28;20030;-72
2021/11/01 03:16:08;;;;;;;19.45;1.90;;;;;;;8.06;57.17;99558.59;4987997;28;20026;-72
2021/11/01 03:19:03;;;;;;;12.85;1.55;;;;;;;7.61;58.28;99561.72;4985113;28;20119;-74
2021/11/01 03:21:32;;;;;;;11.63;0.75;;;;;;;7.58;58.59;99560.09;5004281;28;20100;-70
2021/11/01 03:23:58;;;;;;;15.73;1.38;;;;;;;7.77;58.31;99556.59;5002599;28;20129;-71
2021/11/01 03:26:26;;;;;;;7.85;0.73;;;;;;;7.91;57.59;99560.22;5005090;28;20038;-73
2021/11/01 03:28:55;;;;;;;9.15;0.82;;;;;;;7.65;58.31;99556.28;5002769;28;20414;-67
2021/11/01 03:31:23;;;;;;;7.22;0.93;;;;;;;7.97;57.70;99563.41;5003136;28;20116;-69
2021/11/01 03:33:51;;;;;;;12.88;0.77;;;;;;;7.94;57.39;99562.66;5019486;28;20049;-72
2021/11/01 03:36:17;;;;;;;13.25;1.13;;;;;;;7.79;57.63;99555.59;5007364;28;20085;-72
2021/11/01 03:38:43;;;;;;;17.75;0.80;;;;;;;8.00;56.64;99556.28;5007095;28;20270;-71
2021/11/01 03:41:11;;;;;;;11.35;1.10;;;;;;;7.94;57.05;99547.03;5005114;28;20042;-71
2021/11/01 03:43:45;;;;;;;6.75;0.82;;;;;;;7.90;57.02;99552.47;5001813;28;20103;-70
2021/11/01 03:46:12;;;;;;;9.00;1.10;;;;;;;7.93;57.21;99560.13;5003980;28;20056;-72
2021/11/01 03:48:42;;;;;;;19.63;1.48;;;;;;;7.75;57.54;99564.47;5001923;28;20054;-69
2021/11/01 03:51:11;;;;;;;22.48;1.83;;;;;;;7.94;57.04;99569.63;5004458;28;20045;-70
2021/11/01 03:53:38;;;;;;;15.18;1.42;;;;;;;7.84;57.12;99568.38;5001626;28;20042;-73
2021/11/01 03:56:05;;;;;;;7.25;0.98;;;;;;;7.84;57.12;99560.56;5006170;28;20040;-69
2021/11/01 03:58:31;;;;;;;11.80;2.20;;;;;;;7.29;58.89;99571.88;4987172;28;20104;-72
2021/11/01 04:00:57;;;;;;;11.75;1.52;;;;;;;7.40;58.57;99574.81;4998488;28;20121;-74
2021/11/01 04:03:24;;;;;;;8.27;0.60;;;;;;;7.60;57.79;99580.81;5003126;28;20125;-72
2021/11/01 04:05:54;;;;;;;8.00;1.20;;;;;;;7.69;57.45;99565.63;5007367;28;20045;-71
2021/11/01 04:08:20;;;;;;;13.55;1.73;;;;;;;7.70;57.18;99567.28;4974470;28;20038;-69
2021/11/01 04:10:45;;;;;;;7.03;1.92;;;;;;;7.66;57.40;99570.97;4989200;28;20272;-69
2021/11/01 04:13:16;;;;;;;14.55;0.85;;;;;;;7.67;57.47;99575.25;5018864;28;20037;-70
2021/11/01 04:15:46;;;;;;;7.53;1.38;;;;;;;7.78;56.70;99568.69;5002744;28;20038;-69
2021/11/01 04:18:23;;;;;;;9.90;1.15;;;;;;;7.82;56.55;99570.22;5026132;28;20325;-67
2021/11/01 04:20:54;;;;;;;11.57;1.00;;;;;;;7.89;56.07;99582.00;5027185;28;20201;-68
2021/11/01 04:23:24;;;;;;;12.25;0.60;;;;;;;7.79;56.48;99573.81;5026283;28;20041;-69
2021/11/01 04:25:49;;;;;;;14.27;1.40;;;;;;;7.73;56.77;99577.56;5027019;28;20091;-68
2021/11/01 04:28:15;;;;;;;6.25;0.93;;;;;;;7.61;56.53;99572.94;5008377;28;20041;-68
2021/11/01 04:30:43;;;;;;;6.15;0.95;;;;;;;7.57;56.96;99580.97;5006223;28;20033;-69
2021/11/01 04:33:14;;;;;;;7.70;0.77;;;;;;;7.76;56.52;99568.78;5001993;28;20091;-67
2021/11/01 04:35:40;;;;;;;10.98;1.42;;;;;;;7.45;57.13;99580.63;5001472;28;20029;-68
2021/11/01 04:40:51;;;;;;;10.15;0.93;;;;;;;7.67;56.18;99585.66;5025334;28;20033;-68
2021/11/01 04:53:47;;;;;;;14.65;1.75;;;;;;;7.44;56.84;99589.31;5026286;28;20127;-69
2021/11/01 04:56:13;;;;;;;5.30;1.48;;;;;;;7.63;56.08;99588.50;5007483;28;20053;-68
2021/11/01 04:58:43;;;;;;;10.43;0.80;;;;;;;7.67;55.82;99582.22;5024068;28;20034;-67
2021/11/01 05:01:09;;;;;;;12.30;1.58;;;;;;;7.71;55.52;99584.59;5026082;28;20036;-72
2021/11/01 05:03:40;;;;;;;8.35;0.80;;;;;;;7.48;56.26;99577.84;5024290;28;20411;-72
2021/11/01 05:06:05;;;;;;;7.18;1.40;;;;;;;7.36;56.70;99578.47;5026969;28;20390;-74
2021/11/01 05:08:55;;;;;;;8.48;1.05;;;;;;;7.51;56.35;99579.47;4989288;28;20183;-73
2021/11/01 05:11:44;;;;;;;3.85;0.98;;;;;;;7.51;56.18;99584.66;5024769;28;20037;-70
2021/11/01 05:14:12;;;;;;;9.38;0.90;;;;;;;7.40;56.34;99595.59;5025138;28;20132;-69
2021/11/01 05:16:53;;;;;;;8.75;1.77;;;;;;;7.13;57.04;99587.31;5000476;28;20041;-70
2021/11/01 05:19:23;;;;;;;15.90;1.55;;;;;;;7.25;56.36;99588.50;5025096;28;20073;-70
2021/11/01 05:22:00;;;;;;;12.30;0.88;;;;;;;7.18;57.24;99587.97;5021372;28;20429;-69
2021/11/01 05:24:52;;;;;;;9.30;0.88;;;;;;;7.04;57.01;99590.31;5008017;28;20033;-69
2021/11/01 05:29:51;;;;;;;11.60;0.75;;;;;;;7.24;56.42;99584.22;5025145;28;20037;-70
2021/11/01 05:32:21;;;;;;;11.52;0.90;;;;;;;7.06;56.76;99572.91;4990761;28;20041;-70
2021/11/01 05:34:47;;;;;;;6.97;0.70;;;;;;;6.96;57.24;99569.91;5007872;28;20494;-70
2021/11/01 05:37:13;;;;;;;7.10;0.98;;;;;;;7.05;57.13;99571.25;5023900;28;20053;-70
2021/11/01 05:39:38;;;;;;;6.95;0.88;;;;;;;7.30;56.20;99576.13;5025999;28;20044;-70
2021/11/01 05:42:06;;;;;;;6.88;0.93;;;;;;;6.84;57.39;99573.91;4999901;28;20107;-71
2021/11/01 05:44:31;;;;;;;6.40;0.88;;;;;;;7.21;56.08;99572.22;5008126;28;20029;-70
2021/11/01 05:46:57;;;;;;;10.63;0.65;;;;;;;6.82;57.36;99578.34;5024736;28;20120;-70
2021/11/01 05:49:24;;;;;;;3.90;0.65;;;;;;;7.01;56.91;99585.28;5025491;28;20047;-68
2021/11/01 05:51:51;;;;;;;8.68;0.40;;;;;;;6.88;57.33;99582.41;5023658;28;20588;-69
2021/11/01 05:54:22;;;;;;;16.20;0.95;;;;;;;6.88;56.74;99585.81;5007544;28;20075;-69
2021/11/01 06:15:11;;;;;;;5.78;0.30;;;;;;;7.15;55.95;99600.22;5023770;28;20556;-70
2021/11/01 06:17:37;;;;;;;4.07;0.50;;;;;;;6.91;56.26;99596.09;5023119;28;20048;-71
2021/11/01 06:20:05;;;;;;;6.55;0.57;;;;;;;6.79;56.60;99596.63;5023635;28;20203;-70
2021/11/01 06:22:31;;;;;;;3.80;1.23;;;;;;;6.82;57.16;99596.50;5023199;28;20045;-68
2021/11/01 06:24:59;;;;;;;13.38;1.60;;;;;;;7.16;55.67;99594.97;5023228;28;20037;-68
2021/11/01 06:27:25;;;;;;;8.20;1.02;;;;;;;7.17;55.48;99591.44;5022520;28;20033;-68
2021/11/01 06:32:36;;;;;;;14.68;1.17;;;;;;;7.20;55.52;99593.06;5023095;28;20060;-69
2021/11/01 06:43:25;;;;;;;13.20;0.77;;;;;;;6.82;56.13;99613.81;4929992;28;20078;-69
2021/11/01 06:51:29;;;;;;;5.47;0.73;;;;;;;6.79;56.46;99608.78;5005186;28;20036;-69
2021/11/01 07:15:52;;;;;;;10.07;0.93;;;;;;;7.05;55.61;99629.25;4986472;28;20036;-72
2021/11/01 08:36:34;;;;;;;6.15;1.25;;;;;;;9.34;49.08;99646.59;5022024;28;20044;-68
2021/11/01 08:52:14;;;;;;;7.80;0.95;;;;;;;10.78;45.87;99636.66;5020214;28;20594;-69
2021/11/01 09:05:57;;;;;;;5.97;0.50;;;;;;;10.79;45.40;99635.69;5023230;28;21929;-68
2021/11/01 09:24:44;;;;;;;3.72;0.35;;;;;;;9.09;49.39;99651.41;5022965;28;20041;-67
2021/11/01 09:27:15;;;;;;;8.77;0.63;;;;;;;9.41;49.22;99665.34;5021009;28;20041;-68
2021/11/01 09:29:59;;;;;;;7.05;0.90;;;;;;;9.93;48.01;99651.19;5022482;28;20099;-68
2021/11/01 09:43:13;;;;;;;11.93;0.93;;;;;;;8.44;50.51;99659.94;4997987;28;20096;-70
2021/11/01 09:45:39;;;;;;;6.25;0.40;;;;;;;8.70;50.58;99673.41;5022657;28;20146;-67
2021/11/01 09:48:06;;;;;;;3.95;0.55;;;;;;;9.13;48.99;99673.78;5021912;28;20721;-69
2021/11/01 09:50:32;;;;;;;6.20;1.20;;;;;;;8.51;49.62;99666.50;5021505;28;20033;-69
2021/11/01 09:53:02;;;;;;;5.40;0.40;;;;;;;8.81;49.91;99665.03;5020329;28;20516;-69
2021/11/01 10:00:51;;;;;;;4.38;0.63;;;;;;;9.88;48.03;99677.56;4986655;28;20056;-68
2021/11/01 10:03:18;;;;;;;8.35;0.63;;;;;;;10.84;46.27;99688.59;5020629;28;20713;-66
2021/11/01 10:05:57;;;;;;;5.05;0.55;;;;;;;10.43;46.07;99679.59;5021607;28;20087;-67
2021/11/01 10:08:23;;;;;;;5.85;0.50;;;;;;;8.65;50.07;99683.19;5019544;28;20506;-66
2021/11/01 10:10:53;;;;;;;5.65;0.63;;;;;;;9.51;48.09;99676.09;5020985;28;20203;-68
2021/11/01 10:13:18;;;;;;;4.75;0.47;;;;;;;9.08;48.44;99681.03;5020989;28;20099;-69
2021/11/01 10:18:29;;;;;;;5.15;0.70;;;;;;;8.83;49.02;99671.88;5020628;28;20418;-66
2021/11/01 10:20:58;;;;;;;3.88;0.95;;;;;;;9.13;49.56;99681.63;5021233;28;20037;-67
2021/11/01 10:23:26;;;;;;;6.45;0.60;;;;;;;9.16;49.58;99671.00;4995369;28;20056;-67
2021/11/01 10:26:16;;;;;;;7.95;0.65;;;;;;;10.30;46.57;99683.03;4996602;28;20072;-67
2021/11/01 10:28:46;;;;;;;4.22;0.40;;;;;;;10.29;46.94;99686.56;5020471;28;20053;-70
2021/11/01 10:31:24;;;;;;;3.75;0.95;;;;;;;9.67;46.35;99673.50;5021432;28;20083;-67
2021/11/01 10:34:03;;;;;;;4.22;0.77;;;;;;;10.08;46.32;99686.00;5018965;28;20073;-68
2021/11/01 10:36:31;;;;;;;3.60;0.63;;;;;;;10.54;45.76;99689.44;5003550;28;20600;-67
2021/11/01 10:39:03;;;;;;;4.43;0.38;;;;;;;9.72;46.62;99690.59;5019775;28;20041;-66
2021/11/01 10:41:45;;;;;;;5.85;0.43;;;;;;;10.10;45.97;99692.00;5021083;28;20609;-66
2021/11/01 10:44:29;;;;;;;5.85;0.20;;;;;;;9.21;47.60;99687.28;5019684;28;20050;-68
2021/11/01 10:59:08;;;;;;;4.72;0.50;;;;;;;11.12;43.41;99682.50;5018920;28;20449;-67
2021/11/01 11:12:40;;;;;;;3.65;0.30;;;;;;;10.80;44.03;99674.00;5018286;28;20049;-67
2021/11/01 11:15:14;;;;;;;3.28;0.30;;;;;;;10.48;44.46;99668.91;5002735;28;20562;-66
2021/11/01 11:18:01;;;;;;;1.95;0.57;;;;;;;10.70;44.21;99670.22;5016262;28;20421;-66
2021/11/01 11:47:13;;;;;;;1.45;0.20;;;;;;;11.44;42.43;99696.22;4994373;28;20044;-67
2021/11/01 11:49:38;;;;;;;3.65;0.30;;;;;;;10.73;43.69;99696.19;5002296;28;20080;-66
2021/11/01 11:52:09;;;;;;;3.95;0.30;;;;;;;11.07;42.41;99700.25;5002624;28;20067;-67
2021/11/01 11:54:35;;;;;;;6.15;0.85;;;;;;;11.52;41.51;99700.13;5019529;28;20029;-67
2021/11/01 11:57:05;;;;;;;3.75;0.45;;;;;;;10.99;41.65;99708.56;5019607;28;20033;-67
2021/11/01 11:59:33;;;;;;;2.58;0.20;;;;;;;10.37;42.97;99700.88;4993251;28;20366;-67
2021/11/01 12:02:05;;;;;;;2.60;1.02;;;;;;;10.55;43.46;99696.34;4997420;28;20033;-68
2021/11/01 12:04:35;;;;;;;4.93;0.68;;;;;;;10.43;43.65;99704.88;5018473;28;20075;-67
2021/11/01 12:07:03;;;;;;;2.88;0.43;;;;;;;10.66;43.17;99705.31;5019309;28;20080;-67
2021/11/01 12:17:33;;;;;;;4.10;0.30;;;;;;;10.81;42.97;99691.34;4980185;28;20506;-70
2021/11/01 12:20:09;;;;;;;5.40;0.57;;;;;;;10.20;43.46;99688.78;5006303;28;20059;-69
2021/11/01 12:22:38;;;;;;;3.78;0.52;;;;;;;10.00;44.25;99683.84;5022852;28;20465;-66
2021/11/01 12:25:07;;;;;;;6.95;0.40;;;;;;;10.38;44.00;99681.66;5000229;28;20117;-67
2021/11/01 12:27:36;;;;;;;3.95;0.20;;;;;;;10.80;43.37;99687.06;5021517;28;20041;-68
2021/11/01 12:30:06;;;;;;;3.45;0.35;;;;;;;11.10;42.61;99687.00;5022641;28;20761;-68
2021/11/01 12:32:37;;;;;;;1.88;0.22;;;;;;;10.40;43.44;99684.19;5022050;28;20525;-66
2021/11/01 12:35:20;;;;;;;4.05;0.57;;;;;;;11.24;41.80;99689.63;4998987;28;20033;-67
2021/11/01 12:37:56;;;;;;;2.05;0.20;;;;;;;11.18;41.75;99665.63;5023747;28;20033;-69
2021/11/01 12:40:38;;;;;;;7.80;0.43;;;;;;;11.61;41.58;99689.09;5022873;28;20047;-67
2021/11/01 12:43:20;;;;;;;6.70;0.50;;;;;;;11.41;41.81;99699.03;5023097;28;20041;-67
2021/11/01 12:57:25;;;;;;;3.72;0.20;;;;;;;12.82;39.10;99688.22;5007238;28;20576;-68
2021/11/01 12:59:51;;;;;;;3.72;0.20;;;;;;;12.79;38.31;99680.56;4986958;28;20048;-67
2021/11/01 13:02:25;;;;;;;3.97;0.30;;;;;;;13.17;37.46;99671.81;5003318;28;20037;-67
2021/11/01 13:04:51;;;;;;;0.98;0.20;;;;;;;13.18;37.92;99684.81;5023559;28;20045;-68
2021/11/01 13:10:34;;;;;;;8.50;0.90;;;;;;;12.51;37.92;99695.47;4996869;28;20040;-67
2021/11/01 13:18:43;;;;;;;7.40;0.40;;;;;;;10.91;41.36;99696.91;4987467;28;20060;-69
2021/11/01 13:21:19;;;;;;;1.77;0.10;;;;;;;12.49;38.52;99692.13;5004289;28;20038;-67
2021/11/01 13:23:54;;;;;;;2.83;0.30;;;;;;;11.99;39.38;99688.44;5015484;28;20037;-67
2021/11/01 13:26:35;;;;;;;3.63;0.20;;;;;;;13.02;38.67;99690.28;5022971;28;20589;-68
2021/11/01 13:37:19;;;;;;;7.00;0.40;;;;;;;12.98;37.40;99683.59;5001435;28;20558;-68
2021/11/01 13:39:46;;;;;;;3.58;0.20;;;;;;;12.08;39.09;99687.84;5003569;28;20528;-68
2021/11/01 13:42:15;;;;;;;2.25;0.38;;;;;;;12.08;39.29;99690.47;5005305;28;20073;-67
2021/11/01 13:44:43;;;;;;;6.30;0.25;;;;;;;12.37;38.64;99699.03;5022488;28;20478;-68
2021/11/01 13:47:13;;;;;;;3.88;0.30;;;;;;;12.45;38.73;99696.75;5017140;28;20038;-68
2021/11/01 13:49:39;;;;;;;5.15;0.38;;;;;;;13.05;36.68;99692.72;5002413;28;20022;-67
2021/11/01 13:52:23;;;;;;;5.85;0.40;;;;;;;12.36;38.56;99686.88;5001293;28;20042;-67
2021/11/01 13:54:57;;;;;;;7.97;0.35;;;;;;;13.62;36.06;99691.38;5002166;28;20133;-66
2021/11/01 13:57:23;;;;;;;4.10;0.30;;;;;;;13.19;36.84;99701.41;5000164;28;20127;-67
2021/11/01 14:13:22;;;;;;;3.42;0.60;;;;;;;12.33;37.96;99697.53;5011679;28;20324;-66
2021/11/01 14:29:40;;;;;;;3.35;0.10;;;;;;;12.06;37.75;99702.81;4999241;28;20242;-68
2021/11/01 14:32:34;;;;;;;5.50;0.40;;;;;;;12.36;37.66;99707.00;5017084;28;20041;-67
2021/11/01 14:35:33;;;;;;;8.95;0.43;;;;;;;12.44;37.00;99707.31;5001425;28;20091;-67
2021/11/01 15:29:31;;;;;;;1.75;0.30;;;;;;;10.61;41.64;99753.44;5016609;28;20568;-70
2021/11/01 15:37:30;;;;;;;1.70;0.30;;;;;;;10.51;41.97;99754.94;5015350;28;20041;-67
2021/11/01 16:17:58;;;;;;;3.17;0.75;;;;;;;9.38;44.90;99783.69;4982827;28;20033;-66
2021/11/01 16:20:24;;;;;;;4.03;0.50;;;;;;;9.36;45.10;99793.34;5001069;28;20272;-66
2021/11/01 16:22:58;;;;;;;2.95;2.10;;;;;;;9.32;45.16;99794.44;5000892;28;20132;-66
2021/11/01 16:25:25;;;;;;;0.85;0.20;;;;;;;9.32;45.03;99802.28;4983225;28;20462;-67
2021/11/01 16:27:51;;;;;;;1.60;0.28;;;;;;;9.37;44.83;99797.66;5002030;28;20041;-66
2021/11/01 16:30:21;;;;;;;2.38;0.70;;;;;;;9.12;45.27;99792.88;4985343;28;20363;-67
2021/11/01 16:32:53;;;;;;;2.03;0.10;;;;;;;9.25;45.31;99807.88;4982563;28;20057;-67
2021/11/01 16:35:22;;;;;;;1.75;0.38;;;;;;;9.21;45.50;99808.94;5001309;28;20398;-67
2021/11/01 16:38:00;;;;;;;2.00;0.28;;;;;;;9.23;45.03;99821.00;5000022;28;20211;-67
2021/11/01 16:40:27;;;;;;;1.10;0.20;;;;;;;9.08;45.09;99814.78;5000458;28;20030;-68
2021/11/01 16:42:53;;;;;;;4.35;0.80;;;;;;;9.02;45.59;99816.88;4998828;28;20132;-67
2021/11/01 16:47:47;;;;;;;3.13;0.63;;;;;;;9.02;45.04;99824.69;4973940;28;20042;-66
2021/11/01 16:50:16;;;;;;;0.63;0.30;;;;;;;8.97;45.56;99824.94;4984612;28;20081;-67
2021/11/01 16:52:44;;;;;;;3.30;0.20;;;;;;;8.96;45.39;99831.91;4966108;28;20216;-67
2021/11/01 16:55:20;;;;;;;5.55;0.63;;;;;;;8.96;45.67;99831.91;5001886;28;20060;-67
2021/11/01 16:57:51;;;;;;;5.97;2.40;;;;;;;8.79;45.58;99834.50;4982462;28;20388;-67
2021/11/01 17:06:23;;;;;;;4.45;1.25;;;;;;;8.66;46.35;99843.78;4930619;28;20087;-66
2021/11/01 17:25:03;;;;;;;6.25;1.00;;;;;;;8.49;46.41;99840.22;5001077;28;20053;-66
2021/11/01 17:28:08;;;;;;;4.00;0.73;;;;;;;8.44;46.99;99847.41;4977011;28;20117;-66
2021/11/01 18:43:07;;;;;;;1.00;0.35;;;;;;;7.63;48.57;99888.38;5018059;28;20061;-66
2021/11/01 18:51:28;;;;;;;10.57;0.47;;;;;;;7.60;48.67;99887.66;4995790;28;20033;-67
2021/11/01 18:54:20;;;;;;;3.92;0.40;;;;;;;7.51;48.86;99881.06;5016990;28;20516;-67
2021/11/01 18:56:47;;;;;;;4.95;0.52;;;;;;;7.40;48.92;99873.75;5000310;28;20044;-65
2021/11/01 18:59:14;;;;;;;1.92;0.82;;;;;;;7.31;49.57;99885.38;5017033;28;20041;-66
2021/11/01 19:01:43;;;;;;;1.00;0.30;;;;;;;7.38;49.45;99885.97;5018527;28;20084;-68
2021/11/01 19:04:14;;;;;;;6.50;0.22;;;;;;;7.38;49.22;99883.38;5016566;28;20041;-68
2021/11/01 20:05:30;;;;;;;4.20;0.85;;;;;;;6.79;50.34;99874.53;4998555;28;20365;-67
2021/11/01 20:10:42;;;;;;;4.43;0.80;;;;;;;6.82;50.39;99881.34;5016193;28;20516;-67
2021/11/01 20:13:17;;;;;;;4.80;0.75;;;;;;;6.90;50.21;99884.47;5016083;28;20582;-68
2021/11/01 21:25:14;;;;;;;4.40;0.45;;;;;;;6.44;51.01;99871.59;5016567;28;20037;-66
2021/11/01 21:27:41;;;;;;;2.35;0.70;;;;;;;6.45;51.03;99873.25;5018680;28;20510;-66
2021/11/01 21:30:11;;;;;;;6.53;0.98;;;;;;;6.37;50.75;99874.47;4995462;28;20053;-67
2021/11/01 21:32:38;;;;;;;1.80;0.50;;;;;;;6.30;51.17;99873.84;5017440;28;21239;-65
2021/11/01 21:35:07;;;;;;;4.53;0.82;;;;;;;6.23;51.02;99869.75;5018895;28;20037;-66
2021/11/01 21:37:32;;;;;;;4.97;0.93;;;;;;;6.02;51.41;99874.03;5017791;28;20060;-66
2021/11/01 21:40:00;;;;;;;2.42;1.05;;;;;;;6.09;51.23;99873.72;5019680;28;20059;-66
2021/11/01 21:42:26;;;;;;;3.45;0.77;;;;;;;6.11;50.90;99873.69;5011976;22;20124;-69
2021/11/01 21:44:54;;;;;;;7.68;0.90;;;;;;;5.86;51.98;99882.34;4957807;28;20542;-68
2021/11/01 21:47:20;;;;;;;2.25;0.60;;;;;;;5.95;52.12;99872.53;4969674;28;20125;-70
2021/11/01 21:49:47;;;;;;;5.82;0.70;;;;;;;6.00;51.89;99876.66;5001415;28;20029;-68
2021/11/01 21:52:16;;;;;;;5.93;0.55;;;;;;;5.94;51.79;99876.88;4999192;28;20084;-68
2021/11/01 21:54:49;;;;;;;6.15;0.95;;;;;;;5.88;52.11;99884.88;5000351;28;20021;-67
2021/11/01 22:22:24;;;;;;;4.85;0.60;;;;;;;6.36;51.04;99889.19;5004157;28;20033;-67
2021/11/01 22:33:16;;;;;;;4.68;0.63;;;;;;;6.23;52.12;99887.94;5001333;28;20084;-68
2021/11/01 22:41:00;;;;;;;5.35;0.55;;;;;;;6.30;51.83;99894.59;5000160;28;20492;-69
2021/11/01 22:44:22;;;;;;;9.13;0.70;;;;;;;6.27;51.64;99889.50;5001706;28;20137;-67
2021/11/01 22:55:29;;;;;;;3.53;1.33;;;;;;;6.28;51.86;99897.28;5016189;28;20487;-69
2021/11/01 22:57:04;;;;;;;3.60;0.60;;;;;;;6.28;51.52;99892.09;5001301;28;20091;-69
2021/11/01 22:59:30;;;;;;;3.95;0.57;;;;;;;6.31;51.90;99896.31;5002774;28;20037;-69
2021/11/01 23:01:56;;;;;;;3.75;1.20;;;;;;;6.40;51.37;99889.94;5000715;28;20052;-69
2021/11/01 23:07:06;;;;;;;3.75;0.73;;;;;;;6.35;51.44;99887.50;5001153;28;20120;-69
2021/11/01 23:34:23;;;;;;;3.20;1.05;;;;;;;5.94;52.36;99891.59;5013736;28;20037;-69
2021/11/01 23:36:49;;;;;;;;;;;;;;;5.83;51.80;99891.97;4983286;28;20162;-69
2021/11/01 23:39:15;;;;;;;6.00;1.13;;;;;;;5.79;52.00;99890.41;4984555;28;20004;-69
2021/11/01 23:41:44;;;;;;;3.72;1.17;;;;;;;5.83;52.08;99889.41;5001584;28;20025;-69
2021/11/01 23:44:11;;;;;;;4.68;0.85;;;;;;;5.76;51.98;99899.13;5001104;28;20073;-68
2021/11/01 23:46:36;;;;;;;2.00;0.43;;;;;;;5.75;52.24;99888.81;5014965;28;20042;-70
2021/11/01 23:49:03;;;;;;;1.75;1.02;;;;;;;5.73;52.15;99885.44;5001372;28;20061;-69
2021/11/01 23:51:35;;;;;;;7.47;1.10;;;;;;;5.64;52.33;99891.81;5002183;28;20038;-68
2021/11/01 23:56:47;;;;;;;2.53;1.25;;;;;;;5.46;52.89;99890.69;5001071;28;20372;-69
2021/11/01 23:59:13;;;;;;;2.47;1.05;;;;;;;5.55;52.81;99885.19;5001969;28;20037;-69
